createdAt,value
2019-05-15T00:01:03.601Z,11.80
2019-05-15T00:02:10.918Z,11.80
2019-05-15T00:03:14.937Z,11.80
2019-05-15T00:04:19.365Z,11.80
2019-05-15T00:05:23.935Z,11.80
2019-05-15T00:06:28.665Z,11.80
2019-05-15T00:07:33.415Z,11.80
2019-05-15T00:08:38.636Z,11.80
2019-05-15T00:09:43.471Z,11.80
2019-05-15T00:10:48.428Z,11.70
2019-05-15T00:11:53.151Z,11.70
2019-05-15T00:12:58.072Z,11.70
2019-05-15T00:14:02.735Z,11.70
2019-05-15T00:15:09.324Z,11.70
2019-05-15T00:16:13.385Z,11.70
2019-05-15T00:17:19.209Z,11.60
2019-05-15T00:18:23.967Z,11.60
2019-05-15T00:19:28.552Z,11.60
2019-05-15T00:20:33.183Z,11.60
2019-05-15T00:21:38.311Z,11.60
2019-05-15T00:22:43.179Z,11.60
2019-05-15T00:23:49.374Z,11.60
2019-05-15T00:24:53.839Z,11.50
2019-05-15T00:25:58.578Z,11.50
2019-05-15T00:27:03.200Z,11.50
2019-05-15T00:28:09.363Z,11.50
2019-05-15T00:29:16.391Z,11.50
2019-05-15T00:30:19.908Z,11.40
2019-05-15T00:31:24.492Z,11.40
2019-05-15T00:32:28.892Z,11.40
2019-05-15T00:33:33.487Z,11.40
2019-05-15T00:34:37.993Z,11.40
2019-05-15T00:35:42.642Z,11.30
2019-05-15T00:36:48.916Z,11.30
2019-05-15T00:37:53.304Z,11.30
2019-05-15T00:38:59.096Z,11.30
2019-05-15T00:40:03.846Z,11.30
2019-05-15T00:41:09.403Z,11.30
2019-05-15T00:42:14.336Z,11.20
2019-05-15T00:43:18.735Z,11.20
2019-05-15T00:44:23.377Z,11.20
2019-05-15T00:45:27.906Z,11.20
2019-05-15T00:46:32.548Z,11.20
2019-05-15T00:47:39.357Z,11.20
2019-05-15T00:48:43.189Z,11.20
2019-05-15T00:49:48.789Z,11.20
2019-05-15T00:50:53.496Z,11.20
2019-05-15T00:51:59.140Z,11.10
2019-05-15T00:53:03.788Z,11.10
2019-05-15T00:54:08.504Z,11.10
2019-05-15T00:55:13.116Z,11.10
2019-05-15T00:56:19.506Z,11.10
2019-05-15T00:57:23.748Z,11.00
2019-05-15T00:58:28.437Z,11.00
2019-05-15T00:59:33.130Z,11.00
2019-05-15T01:00:40.598Z,11.00
2019-05-15T01:01:45.184Z,11.00
2019-05-15T01:02:49.591Z,11.00
2019-05-15T01:03:54.177Z,10.90
2019-05-15T01:04:58.660Z,10.90
2019-05-15T01:06:03.283Z,10.90
2019-05-15T01:07:08.313Z,10.90
2019-05-15T01:08:13.083Z,10.90
2019-05-15T01:09:18.710Z,10.90
2019-05-15T01:10:23.362Z,10.80
2019-05-15T01:11:28.462Z,10.90
2019-05-15T01:12:33.220Z,10.80
2019-05-15T01:13:38.825Z,10.80
2019-05-15T01:14:43.702Z,10.80
2019-05-15T01:15:48.926Z,10.80
2019-05-15T01:16:53.886Z,10.80
2019-05-15T01:17:58.359Z,10.80
2019-05-15T01:19:03.059Z,10.80
2019-05-15T01:20:08.469Z,10.70
2019-05-15T01:21:13.295Z,10.70
2019-05-15T01:22:19.493Z,10.70
2019-05-15T01:23:23.935Z,10.70
2019-05-15T01:24:28.436Z,10.60
2019-05-15T01:25:33.019Z,10.70
2019-05-15T01:26:38.474Z,10.60
2019-05-15T01:27:43.360Z,10.60
2019-05-15T01:28:49.485Z,10.60
2019-05-15T01:29:54.023Z,10.60
2019-05-15T01:30:59.224Z,10.60
2019-05-15T01:32:03.935Z,10.60
2019-05-15T01:33:08.581Z,10.60
2019-05-15T01:34:13.330Z,10.60
2019-05-15T01:35:18.082Z,10.50
2019-05-15T01:36:22.802Z,10.50
2019-05-15T01:37:28.172Z,10.50
2019-05-15T01:38:32.979Z,10.50
2019-05-15T01:39:38.501Z,10.50
2019-05-15T01:40:43.162Z,10.40
2019-05-15T01:41:49.586Z,10.40
2019-05-15T01:42:53.991Z,10.40
2019-05-15T01:43:58.396Z,10.40
2019-05-15T01:45:02.983Z,10.30
2019-05-15T01:46:08.383Z,10.30
2019-05-15T01:47:13.282Z,10.30
2019-05-15T01:48:18.963Z,10.30
2019-05-15T01:49:23.771Z,10.30
2019-05-15T01:50:29.202Z,10.30
2019-05-15T01:51:33.987Z,10.20
2019-05-15T01:52:39.061Z,10.20
2019-05-15T01:53:43.854Z,10.20
2019-05-15T01:54:48.907Z,10.20
2019-05-15T01:55:53.671Z,10.10
2019-05-15T01:56:58.774Z,10.10
2019-05-15T01:58:03.483Z,10.10
2019-05-15T01:59:08.631Z,10.10
2019-05-15T02:00:13.484Z,10.00
2019-05-15T02:01:19.134Z,10.00
2019-05-15T02:02:24.010Z,10.00
2019-05-15T02:03:28.916Z,10.00
2019-05-15T02:04:33.687Z,10.00
2019-05-15T02:05:38.997Z,10.00
2019-05-15T02:06:43.759Z,10.00
2019-05-15T02:07:48.191Z,9.90
2019-05-15T02:08:52.770Z,9.90
2019-05-15T02:09:58.271Z,10.00
2019-05-15T02:11:02.941Z,9.90
2019-05-15T02:12:08.694Z,9.90
2019-05-15T02:13:13.464Z,9.90
2019-05-15T02:14:18.929Z,9.90
2019-05-15T02:15:23.747Z,9.90
2019-05-15T02:16:28.793Z,9.90
2019-05-15T02:17:33.552Z,9.90
2019-05-15T02:18:39.099Z,9.90
2019-05-15T02:19:44.066Z,9.80
2019-05-15T02:20:49.323Z,9.80
2019-05-15T02:21:54.240Z,9.80
2019-05-15T02:22:59.134Z,9.80
2019-05-15T02:24:03.871Z,9.80
2019-05-15T02:25:08.786Z,9.80
2019-05-15T02:26:13.435Z,9.80
2019-05-15T02:27:18.645Z,9.80
2019-05-15T02:28:23.563Z,9.80
2019-05-15T02:29:28.619Z,9.80
2019-05-15T02:30:34.271Z,9.70
2019-05-15T02:31:39.344Z,9.70
2019-05-15T02:32:44.144Z,9.70
2019-05-15T02:33:49.819Z,9.70
2019-05-15T02:34:54.823Z,9.70
2019-05-15T02:35:59.512Z,9.70
2019-05-15T02:37:04.264Z,9.70
2019-05-15T02:38:10.270Z,9.70
2019-05-15T02:39:14.899Z,9.70
2019-05-15T02:40:19.359Z,9.60
2019-05-15T02:41:23.981Z,9.60
2019-05-15T02:42:29.185Z,9.60
2019-05-15T02:43:33.986Z,9.60
2019-05-15T02:44:40.048Z,9.60
2019-05-15T02:45:44.703Z,9.50
2019-05-15T02:46:50.023Z,9.60
2019-05-15T02:47:54.924Z,9.50
2019-05-15T02:48:59.359Z,9.50
2019-05-15T02:50:03.900Z,9.50
2019-05-15T02:51:09.736Z,9.50
2019-05-15T02:52:15.076Z,9.50
2019-05-15T02:53:19.523Z,9.50
2019-05-15T02:54:24.092Z,9.40
2019-05-15T02:55:29.621Z,9.40
2019-05-15T02:56:34.565Z,9.40
2019-05-15T02:57:39.598Z,9.40
2019-05-15T02:58:44.495Z,9.40
2019-05-15T02:59:49.821Z,9.40
2019-05-15T03:00:54.918Z,9.30
2019-05-15T03:01:59.651Z,9.30
2019-05-15T03:03:04.354Z,9.30
2019-05-15T03:04:09.192Z,9.30
2019-05-15T03:05:14.068Z,9.30
2019-05-15T03:06:19.243Z,9.30
2019-05-15T03:07:24.035Z,9.30
2019-05-15T03:08:29.840Z,9.20
2019-05-15T03:09:34.673Z,9.20
2019-05-15T03:10:40.526Z,9.20
2019-05-15T03:11:45.291Z,9.20
2019-05-15T03:12:49.701Z,9.20
2019-05-15T03:13:54.304Z,9.20
2019-05-15T03:14:59.888Z,9.10
2019-05-15T03:16:04.588Z,9.10
2019-05-15T03:17:09.814Z,9.10
2019-05-15T03:18:14.464Z,9.10
2019-05-15T03:19:19.515Z,9.10
2019-05-15T03:20:24.259Z,9.10
2019-05-15T03:21:29.517Z,9.00
2019-05-15T03:22:34.294Z,9.00
2019-05-15T03:23:40.507Z,9.00
2019-05-15T03:24:45.036Z,9.00
2019-05-15T03:25:49.425Z,9.00
2019-05-15T03:26:54.004Z,9.00
2019-05-15T03:27:59.564Z,9.00
2019-05-15T03:29:04.350Z,9.00
2019-05-15T03:30:13.370Z,8.90
2019-05-15T03:31:35.112Z,8.90
2019-05-15T03:32:32.787Z,8.90
2019-05-15T03:33:35.082Z,8.90
2019-05-15T03:34:38.384Z,8.90
2019-05-15T03:35:42.747Z,8.90
2019-05-15T03:36:47.314Z,8.90
2019-05-15T03:37:51.986Z,8.90
2019-05-15T03:38:58.557Z,8.90
2019-05-15T03:40:02.698Z,8.90
2019-05-15T03:41:09.874Z,8.90
2019-05-15T03:42:13.315Z,8.90
2019-05-15T03:43:18.600Z,8.80
2019-05-15T03:44:23.420Z,8.80
2019-05-15T03:45:29.716Z,8.80
2019-05-15T03:46:39.578Z,8.80
2019-05-15T03:47:42.325Z,8.80
2019-05-15T03:48:48.754Z,8.80
2019-05-15T03:49:53.209Z,8.80
2019-05-15T03:50:59.704Z,8.80
2019-05-15T03:52:03.845Z,8.80
2019-05-15T03:53:10.204Z,8.70
2019-05-15T03:54:14.492Z,8.70
2019-05-15T03:55:19.072Z,8.70
2019-05-15T03:56:23.479Z,8.70
2019-05-15T03:57:30.367Z,8.70
2019-05-15T03:58:34.137Z,8.70
2019-05-15T03:59:39.870Z,8.60
2019-05-15T04:00:44.531Z,8.60
2019-05-15T04:01:49.805Z,8.60
2019-05-15T04:02:54.313Z,8.60
2019-05-15T04:03:59.849Z,8.60
2019-05-15T04:05:04.912Z,8.60
2019-05-15T04:06:10.218Z,8.50
2019-05-15T04:07:14.786Z,8.50
2019-05-15T04:08:19.677Z,8.50
2019-05-15T04:09:24.275Z,8.50
2019-05-15T04:10:29.089Z,8.60
2019-05-15T04:11:33.477Z,8.60
2019-05-15T04:12:40.373Z,8.60
2019-05-15T04:13:44.108Z,8.60
2019-05-15T04:14:50.037Z,8.60
2019-05-15T04:15:54.695Z,8.50
2019-05-15T04:16:59.680Z,8.50
2019-05-15T04:18:04.281Z,8.50
2019-05-15T04:19:09.688Z,8.60
2019-05-15T04:20:14.393Z,8.60
2019-05-15T04:21:20.096Z,8.60
2019-05-15T04:22:24.766Z,8.50
2019-05-15T04:23:30.179Z,8.50
2019-05-15T04:24:34.871Z,8.50
2019-05-15T04:25:39.608Z,8.50
2019-05-15T04:26:44.168Z,8.60
2019-05-15T04:27:49.376Z,8.60
2019-05-15T04:28:53.947Z,8.50
2019-05-15T04:29:59.253Z,8.50
2019-05-15T04:31:03.772Z,8.50
2019-05-15T04:32:10.595Z,8.50
2019-05-15T04:33:14.405Z,8.60
2019-05-15T04:34:19.509Z,8.60
2019-05-15T04:35:24.203Z,8.60
2019-05-15T04:36:29.728Z,8.60
2019-05-15T04:37:34.307Z,8.60
2019-05-15T04:38:39.435Z,8.60
2019-05-15T04:39:44.135Z,8.60
2019-05-15T04:40:50.059Z,8.60
2019-05-15T04:41:54.727Z,8.70
2019-05-15T04:42:59.479Z,8.70
2019-05-15T04:44:03.903Z,8.70
2019-05-15T04:45:10.069Z,8.70
2019-05-15T04:46:14.599Z,8.70
2019-05-15T04:47:19.360Z,8.70
2019-05-15T04:48:24.284Z,8.80
2019-05-15T04:49:29.332Z,8.80
2019-05-15T04:50:33.894Z,8.80
2019-05-15T04:51:39.038Z,8.80
2019-05-15T04:52:43.787Z,8.80
2019-05-15T04:53:50.376Z,8.80
2019-05-15T04:54:54.508Z,8.90
2019-05-15T04:55:59.813Z,8.90
2019-05-15T04:57:04.792Z,8.90
2019-05-15T04:58:10.157Z,9.00
2019-05-15T04:59:14.866Z,9.00
2019-05-15T05:00:39.823Z,9.10
2019-05-15T05:01:43.350Z,9.10
2019-05-15T05:02:49.697Z,9.20
2019-05-15T05:03:54.151Z,9.20
2019-05-15T05:04:58.926Z,9.30
2019-05-15T05:06:03.447Z,9.30
2019-05-15T05:07:09.436Z,9.40
2019-05-15T05:08:14.033Z,9.40
2019-05-15T05:09:19.893Z,9.50
2019-05-15T05:10:24.604Z,9.50
2019-05-15T05:11:29.619Z,9.50
2019-05-15T05:12:34.003Z,9.60
2019-05-15T05:13:39.174Z,9.60
2019-05-15T05:14:44.115Z,9.60
2019-05-15T05:15:50.040Z,9.70
2019-05-15T05:16:55.017Z,9.80
2019-05-15T05:17:59.582Z,9.90
2019-05-15T05:19:03.912Z,9.90
2019-05-15T05:20:08.553Z,10.00
2019-05-15T05:21:13.167Z,10.20
2019-05-15T05:22:18.712Z,11.30
2019-05-15T05:23:23.255Z,13.00
2019-05-15T05:24:28.106Z,14.80
2019-05-15T05:25:32.635Z,16.40
2019-05-15T05:26:38.307Z,18.00
2019-05-15T05:27:42.833Z,19.40
2019-05-15T05:28:48.813Z,20.60
2019-05-15T05:29:53.520Z,21.60
2019-05-15T05:30:58.834Z,22.60
2019-05-15T05:32:03.545Z,23.40
2019-05-15T05:33:08.534Z,24.00
2019-05-15T05:34:13.037Z,24.50
2019-05-15T05:35:18.565Z,24.90
2019-05-15T05:36:23.085Z,25.20
2019-05-15T05:37:27.985Z,25.20
2019-05-15T05:38:32.462Z,25.10
2019-05-15T05:39:39.279Z,24.40
2019-05-15T05:40:43.092Z,23.60
2019-05-15T05:41:48.728Z,23.00
2019-05-15T05:42:53.195Z,22.50
2019-05-15T05:43:58.702Z,21.90
2019-05-15T05:45:03.212Z,21.20
2019-05-15T05:46:09.199Z,20.70
2019-05-15T05:47:13.835Z,20.00
2019-05-15T05:48:19.014Z,19.50
2019-05-15T05:49:23.622Z,18.90
2019-05-15T05:50:44.169Z,18.40
2019-05-15T05:51:48.233Z,17.90
2019-05-15T05:52:52.846Z,17.20
2019-05-15T05:53:59.010Z,16.80
2019-05-15T05:55:03.750Z,16.70
2019-05-15T05:56:08.934Z,16.70
2019-05-15T05:57:13.792Z,16.80
2019-05-15T05:58:19.650Z,17.00
2019-05-15T05:59:24.627Z,17.30
2019-05-15T06:00:36.222Z,17.70
2019-05-15T06:01:43.957Z,17.80
2019-05-15T06:02:51.918Z,17.80
2019-05-15T06:03:53.173Z,17.50
2019-05-15T06:04:58.238Z,17.20
2019-05-15T06:06:02.971Z,17.00
2019-05-15T06:07:13.760Z,16.90
2019-05-15T06:08:13.648Z,16.70
2019-05-15T06:09:21.278Z,16.40
2019-05-15T06:10:25.949Z,16.20
2019-05-15T06:11:30.298Z,16.00
2019-05-15T06:12:34.987Z,16.00
2019-05-15T06:13:39.399Z,15.90
2019-05-15T06:14:43.995Z,15.80
2019-05-15T06:15:49.083Z,15.70
2019-05-15T06:16:53.819Z,15.70
2019-05-15T06:17:58.583Z,15.70
2019-05-15T06:19:03.287Z,15.80
2019-05-15T06:20:08.157Z,15.90
2019-05-15T06:21:12.966Z,16.00
2019-05-15T06:22:18.829Z,15.90
2019-05-15T06:23:25.881Z,16.00
2019-05-15T06:24:30.652Z,16.00
2019-05-15T06:25:35.399Z,16.00
2019-05-15T06:26:39.798Z,16.30
2019-05-15T06:27:44.454Z,16.70
2019-05-15T06:28:49.187Z,17.10
2019-05-15T06:29:53.959Z,17.30
2019-05-15T06:31:00.695Z,17.40
2019-05-15T06:32:04.601Z,17.40
2019-05-15T06:33:13.277Z,17.30
2019-05-15T06:34:17.720Z,17.10
2019-05-15T06:35:21.430Z,16.90
2019-05-15T06:36:28.646Z,16.80
2019-05-15T06:37:32.135Z,16.70
2019-05-15T06:38:39.025Z,16.50
2019-05-15T06:39:42.834Z,16.30
2019-05-15T06:40:48.598Z,16.10
2019-05-15T06:41:53.221Z,15.90
2019-05-15T06:42:59.333Z,15.80
2019-05-15T06:44:04.262Z,15.70
2019-05-15T06:45:08.947Z,15.70
2019-05-15T06:46:13.380Z,15.70
2019-05-15T06:47:18.103Z,15.70
2019-05-15T06:48:22.616Z,15.70
2019-05-15T06:49:28.602Z,15.60
2019-05-15T06:50:34.710Z,15.60
2019-05-15T06:51:39.322Z,15.70
2019-05-15T06:52:43.745Z,15.80
2019-05-15T06:53:49.157Z,15.80
2019-05-15T06:54:53.780Z,15.70
2019-05-15T06:55:58.617Z,15.80
2019-05-15T06:57:03.155Z,15.80
2019-05-15T06:58:09.258Z,15.80
2019-05-15T06:59:13.922Z,15.70
2019-05-15T07:00:19.144Z,15.60
2019-05-15T07:01:23.795Z,15.50
2019-05-15T07:02:28.597Z,15.50
2019-05-15T07:03:33.120Z,15.50
2019-05-15T07:04:38.388Z,15.50
2019-05-15T07:05:43.016Z,15.50
2019-05-15T07:06:48.853Z,15.50
2019-05-15T07:07:53.520Z,15.50
2019-05-15T07:08:58.752Z,15.50
2019-05-15T07:10:03.283Z,15.50
2019-05-15T07:11:08.732Z,15.50
2019-05-15T07:12:13.529Z,15.50
2019-05-15T07:13:18.527Z,15.60
2019-05-15T07:14:23.178Z,15.60
2019-05-15T07:15:27.932Z,15.50
2019-05-15T07:16:32.402Z,15.40
2019-05-15T07:17:39.338Z,15.40
2019-05-15T07:18:43.097Z,15.50
2019-05-15T07:19:48.599Z,15.60
2019-05-15T07:20:53.215Z,15.70
2019-05-15T07:21:58.156Z,15.70
2019-05-15T07:23:02.701Z,15.60
2019-05-15T07:24:09.155Z,15.50
2019-05-15T07:25:13.371Z,15.50
2019-05-15T07:26:18.264Z,15.50
2019-05-15T07:27:22.895Z,15.50
2019-05-15T07:28:28.875Z,15.50
2019-05-15T07:29:33.423Z,15.60
2019-05-15T07:30:41.092Z,15.50
2019-05-15T07:31:44.071Z,15.50
2019-05-15T07:32:48.910Z,15.60
2019-05-15T07:33:53.363Z,15.70
2019-05-15T07:34:58.044Z,15.50
2019-05-15T07:36:02.486Z,15.50
2019-05-15T07:37:09.908Z,15.50
2019-05-15T07:38:14.423Z,15.50
2019-05-15T07:39:19.098Z,15.60
2019-05-15T07:40:23.484Z,15.60
2019-05-15T07:41:28.559Z,15.60
2019-05-15T07:42:32.948Z,15.60
2019-05-15T07:43:38.457Z,15.70
2019-05-15T07:44:43.099Z,15.80
2019-05-15T07:45:53.659Z,15.80
2019-05-15T07:46:53.838Z,15.80
2019-05-15T07:47:58.625Z,15.60
2019-05-15T07:49:03.047Z,15.60
2019-05-15T07:50:08.873Z,15.60
2019-05-15T07:51:13.622Z,15.70
2019-05-15T07:52:19.344Z,15.70
2019-05-15T07:53:24.028Z,15.70
2019-05-15T07:54:31.806Z,15.70
2019-05-15T07:55:39.075Z,15.70
2019-05-15T07:56:42.355Z,15.70
2019-05-15T07:57:49.435Z,15.80
2019-05-15T07:58:53.046Z,15.90
2019-05-15T07:59:58.755Z,16.00
2019-05-15T08:01:05.372Z,16.10
2019-05-15T08:02:09.565Z,16.30
2019-05-15T08:03:14.163Z,16.30
2019-05-15T08:04:28.528Z,16.40
2019-05-15T08:05:24.914Z,16.50
2019-05-15T08:06:29.334Z,16.80
2019-05-15T08:07:33.919Z,16.90
2019-05-15T08:08:39.369Z,17.10
2019-05-15T08:09:44.272Z,17.20
2019-05-15T08:10:49.260Z,17.30
2019-05-15T08:11:53.928Z,17.60
2019-05-15T08:12:58.360Z,17.80
2019-05-15T08:14:03.730Z,18.00
2019-05-15T08:15:09.163Z,18.20
2019-05-15T08:16:13.753Z,18.60
2019-05-15T08:17:21.330Z,19.00
2019-05-15T08:18:24.453Z,19.70
2019-05-15T08:19:29.011Z,20.20
2019-05-15T08:20:33.671Z,20.50
2019-05-15T08:21:38.637Z,20.30
2019-05-15T08:22:45.879Z,20.00
2019-05-15T08:23:49.447Z,20.00
2019-05-15T08:24:54.173Z,20.20
2019-05-15T08:25:58.738Z,20.50
2019-05-15T08:27:03.327Z,20.90
2019-05-15T08:28:08.781Z,21.20
2019-05-15T08:29:13.552Z,21.40
2019-05-15T08:30:19.574Z,21.50
2019-05-15T08:31:24.174Z,21.60
2019-05-15T08:32:28.582Z,21.70
2019-05-15T08:33:33.175Z,21.90
2019-05-15T08:34:38.701Z,21.70
2019-05-15T08:35:47.762Z,21.90
2019-05-15T08:36:49.465Z,22.30
2019-05-15T08:37:54.334Z,23.00
2019-05-15T08:38:59.147Z,23.40
2019-05-15T08:40:03.837Z,24.00
2019-05-15T08:41:11.574Z,24.50
2019-05-15T08:42:14.660Z,24.90
2019-05-15T08:43:19.041Z,25.10
2019-05-15T08:44:23.611Z,25.80
2019-05-15T08:45:28.355Z,26.50
2019-05-15T08:46:33.078Z,27.50
2019-05-15T08:47:38.586Z,28.70
2019-05-15T08:48:43.299Z,29.80
2019-05-15T08:49:48.464Z,30.40
2019-05-15T08:50:53.224Z,31.00
2019-05-15T08:51:58.447Z,31.90
2019-05-15T08:53:03.219Z,32.30
2019-05-15T08:54:08.497Z,33.10
2019-05-15T08:55:13.304Z,33.50
2019-05-15T08:56:19.416Z,33.90
2019-05-15T08:57:24.048Z,34.00
2019-05-15T08:58:29.134Z,34.40
2019-05-15T08:59:33.868Z,34.90
2019-05-15T09:00:40.103Z,35.20
2019-05-15T09:01:44.556Z,35.10
2019-05-15T09:02:49.052Z,34.40
2019-05-15T09:03:53.772Z,34.20
2019-05-15T09:04:58.209Z,34.00
2019-05-15T09:06:02.792Z,34.20
2019-05-15T09:07:09.278Z,34.00
2019-05-15T09:08:13.420Z,33.70
2019-05-15T09:09:18.274Z,33.50
2019-05-15T09:10:22.927Z,33.80
2019-05-15T09:11:28.337Z,34.10
2019-05-15T09:12:33.080Z,34.70
2019-05-15T09:13:43.518Z,35.10
2019-05-15T09:14:43.739Z,35.40
2019-05-15T09:15:48.432Z,35.80
2019-05-15T09:16:53.061Z,35.90
2019-05-15T09:18:11.656Z,36.20
2019-05-15T09:19:05.062Z,36.50
2019-05-15T09:20:09.498Z,36.50
2019-05-15T09:21:14.181Z,36.90
2019-05-15T09:22:18.881Z,36.70
2019-05-15T09:23:25.689Z,35.50
2019-05-15T09:24:30.092Z,35.20
2019-05-15T09:25:34.681Z,35.60
2019-05-15T09:26:40.411Z,35.80
2019-05-15T09:27:45.260Z,36.20
2019-05-15T09:28:49.685Z,36.80
2019-05-15T09:29:54.247Z,37.30
2019-05-15T09:30:59.210Z,37.90
2019-05-15T09:32:03.871Z,38.30
2019-05-15T09:33:08.801Z,37.40
2019-05-15T09:34:13.498Z,37.60
2019-05-15T09:35:19.904Z,38.00
2019-05-15T09:36:24.523Z,38.40
2019-05-15T09:37:28.995Z,38.50
2019-05-15T09:38:33.573Z,38.90
2019-05-15T09:39:38.177Z,39.20
2019-05-15T09:40:46.475Z,39.30
2019-05-15T09:41:48.993Z,39.50
2019-05-15T09:42:53.562Z,39.20
2019-05-15T09:43:58.047Z,39.10
2019-05-15T09:45:02.688Z,39.40
2019-05-15T09:46:09.725Z,38.80
2019-05-15T09:47:13.356Z,37.40
2019-05-15T09:48:19.803Z,37.10
2019-05-15T09:49:24.001Z,37.20
2019-05-15T09:50:28.399Z,37.50
2019-05-15T09:51:33.060Z,38.10
2019-05-15T09:52:38.777Z,38.70
2019-05-15T09:53:43.778Z,38.90
2019-05-15T09:54:49.028Z,39.10
2019-05-15T09:55:54.081Z,39.60
2019-05-15T09:56:58.683Z,39.60
2019-05-15T09:58:03.348Z,39.50
2019-05-15T09:59:08.867Z,38.90
2019-05-15T10:00:13.973Z,38.90
2019-05-15T10:01:19.661Z,39.10
2019-05-15T10:02:25.319Z,38.60
2019-05-15T10:03:29.757Z,38.60
2019-05-15T10:04:34.325Z,38.40
2019-05-15T10:05:38.946Z,38.80
2019-05-15T10:06:43.634Z,38.60
2019-05-15T10:07:48.111Z,38.20
2019-05-15T10:08:52.676Z,38.20
2019-05-15T10:09:57.090Z,37.80
2019-05-15T10:11:01.715Z,37.90
2019-05-15T10:12:08.355Z,38.10
2019-05-15T10:13:12.473Z,38.50
2019-05-15T10:14:19.276Z,38.60
2019-05-15T10:15:23.102Z,38.60
2019-05-15T10:16:27.502Z,38.90
2019-05-15T10:17:32.114Z,39.60
2019-05-15T10:18:38.686Z,39.60
2019-05-15T10:19:42.746Z,40.00
2019-05-15T10:20:47.152Z,40.20
2019-05-15T10:21:53.493Z,39.90
2019-05-15T10:22:59.018Z,40.30
2019-05-15T10:24:03.884Z,40.50
2019-05-15T10:25:08.500Z,40.60
2019-05-15T10:26:14.384Z,40.40
2019-05-15T10:27:18.942Z,40.10
2019-05-15T10:28:23.531Z,39.70
2019-05-15T10:29:28.204Z,38.90
2019-05-15T10:30:32.920Z,38.90
2019-05-15T10:31:38.918Z,38.70
2019-05-15T10:32:43.660Z,38.50
2019-05-15T10:33:49.217Z,38.00
2019-05-15T10:34:53.898Z,37.80
2019-05-15T10:35:59.026Z,38.30
2019-05-15T10:37:03.884Z,38.60
2019-05-15T10:38:08.956Z,38.80
2019-05-15T10:39:13.866Z,38.70
2019-05-15T10:40:20.440Z,38.90
2019-05-15T10:41:24.998Z,39.50
2019-05-15T10:42:29.429Z,39.30
2019-05-15T10:43:34.038Z,38.70
2019-05-15T10:44:39.202Z,38.50
2019-05-15T10:45:43.939Z,38.30
2019-05-15T10:46:48.548Z,38.90
2019-05-15T10:47:53.244Z,39.60
2019-05-15T10:48:58.582Z,40.00
2019-05-15T10:50:03.397Z,40.00
2019-05-15T10:51:10.251Z,39.50
2019-05-15T10:52:14.006Z,39.30
2019-05-15T10:53:19.883Z,39.30
2019-05-15T10:54:24.501Z,38.50
2019-05-15T10:55:28.967Z,38.40
2019-05-15T10:56:33.691Z,38.20
2019-05-15T10:57:42.981Z,37.20
2019-05-15T10:58:44.424Z,36.70
2019-05-15T10:59:48.802Z,35.60
2019-05-15T11:00:53.413Z,35.50
2019-05-15T11:01:59.079Z,35.80
2019-05-15T11:03:04.636Z,36.10
2019-05-15T11:04:09.432Z,36.50
2019-05-15T11:05:14.152Z,36.60
2019-05-15T11:06:18.597Z,37.20
2019-05-15T11:07:23.188Z,37.70
2019-05-15T11:08:29.031Z,37.40
2019-05-15T11:09:33.767Z,37.60
2019-05-15T11:10:41.744Z,37.60
2019-05-15T11:11:44.432Z,38.10
2019-05-15T11:12:48.847Z,38.60
2019-05-15T11:13:55.228Z,38.10
2019-05-15T11:14:59.655Z,38.50
2019-05-15T11:16:04.262Z,38.20
2019-05-15T11:17:08.651Z,37.50
2019-05-15T11:18:13.420Z,37.60
2019-05-15T11:19:18.064Z,36.80
2019-05-15T11:20:22.638Z,36.70
2019-05-15T11:21:27.046Z,37.30
2019-05-15T11:22:31.684Z,36.80
2019-05-15T11:23:42.172Z,36.60
2019-05-15T11:24:42.360Z,36.00
2019-05-15T11:25:48.678Z,36.20
2019-05-15T11:26:56.080Z,36.80
2019-05-15T11:27:59.319Z,37.40
2019-05-15T11:29:03.937Z,37.90
2019-05-15T11:30:08.369Z,38.30
2019-05-15T11:31:13.147Z,38.20
2019-05-15T11:32:17.552Z,38.10
2019-05-15T11:33:22.184Z,37.70
2019-05-15T11:34:28.812Z,37.70
2019-05-15T11:35:32.916Z,37.40
2019-05-15T11:36:38.683Z,37.30
2019-05-15T11:37:46.399Z,37.50
2019-05-15T11:38:49.966Z,37.10
2019-05-15T11:39:54.592Z,36.50
2019-05-15T11:40:58.992Z,36.20
2019-05-15T11:42:03.568Z,36.30
2019-05-15T11:43:08.593Z,36.30
2019-05-15T11:44:13.358Z,35.90
2019-05-15T11:45:18.503Z,35.00
2019-05-15T11:46:25.664Z,33.50
2019-05-15T11:47:29.647Z,32.40
2019-05-15T11:48:34.254Z,30.90
2019-05-15T11:49:38.682Z,30.50
2019-05-15T11:50:43.275Z,30.10
2019-05-15T11:51:49.170Z,29.60
2019-05-15T11:52:53.968Z,29.30
2019-05-15T11:53:58.770Z,28.80
2019-05-15T11:55:03.508Z,28.50
2019-05-15T11:56:09.457Z,28.30
2019-05-15T11:57:14.360Z,27.90
2019-05-15T11:58:19.326Z,27.70
2019-05-15T11:59:24.090Z,27.60
2019-05-15T12:00:30.292Z,27.70
2019-05-15T12:01:35.015Z,28.00
2019-05-15T12:02:39.439Z,28.30
2019-05-15T12:03:44.191Z,28.30
2019-05-15T12:04:48.719Z,28.40
2019-05-15T12:05:53.322Z,28.10
2019-05-15T12:07:01.681Z,27.80
2019-05-15T12:08:03.971Z,27.70
2019-05-15T12:09:09.159Z,27.80
2019-05-15T12:10:14.089Z,27.90
2019-05-15T12:11:31.722Z,28.10
2019-05-15T12:12:24.729Z,28.10
2019-05-15T12:13:29.282Z,28.00
2019-05-15T12:14:33.907Z,28.00
2019-05-15T12:15:38.882Z,28.00
2019-05-15T12:17:00.916Z,28.10
2019-05-15T12:17:49.792Z,27.70
2019-05-15T12:18:54.534Z,27.30
2019-05-15T12:20:05.890Z,27.20
2019-05-15T12:21:05.631Z,26.90
2019-05-15T12:22:10.031Z,26.90
2019-05-15T12:23:14.644Z,26.80
2019-05-15T12:24:19.104Z,26.80
2019-05-15T12:25:28.397Z,26.20
2019-05-15T12:26:29.812Z,25.50
2019-05-15T12:27:34.399Z,25.10
2019-05-15T12:28:40.505Z,24.80
2019-05-15T12:29:45.155Z,24.70
2019-05-15T12:30:49.546Z,24.50
2019-05-15T12:31:54.152Z,24.40
2019-05-15T12:33:00.228Z,24.20
2019-05-15T12:34:04.918Z,24.20
2019-05-15T12:35:09.339Z,24.10
2019-05-15T12:36:13.921Z,24.00
2019-05-15T12:37:19.746Z,23.80
2019-05-15T12:38:24.413Z,23.60
2019-05-15T12:39:30.429Z,23.50
2019-05-15T13:00:29.664Z,22.40
2019-05-15T13:01:32.592Z,22.20
2019-05-15T13:02:38.725Z,22.30
2019-05-15T13:03:43.298Z,22.00
2019-05-15T13:04:47.870Z,21.90
2019-05-15T13:05:52.354Z,22.00
2019-05-15T13:07:12.186Z,22.20
2019-05-15T13:08:03.043Z,22.40
2019-05-15T13:09:08.782Z,22.50
2019-05-15T13:10:13.209Z,22.50
2019-05-15T13:11:18.073Z,22.40
2019-05-15T13:12:22.523Z,22.50
2019-05-15T13:13:28.317Z,22.60
2019-05-15T13:14:32.897Z,22.50
2019-05-15T13:15:41.081Z,22.50
2019-05-15T13:16:43.580Z,22.40
2019-05-15T13:17:52.764Z,22.40
2019-05-15T13:18:54.322Z,22.30
2019-05-15T13:19:58.914Z,22.20
2019-05-15T13:21:03.331Z,22.20
2019-05-15T13:22:17.841Z,22.30
2019-05-15T13:23:13.961Z,22.30
2019-05-15T13:24:19.395Z,22.50
2019-05-15T13:25:23.997Z,22.70
2019-05-15T13:26:28.578Z,22.90
2019-05-15T13:27:32.976Z,23.00
2019-05-15T13:28:37.613Z,23.00
2019-05-15T13:29:42.205Z,22.90
2019-05-15T13:30:49.000Z,22.70
2019-05-15T13:31:52.867Z,22.40
2019-05-15T13:32:58.723Z,22.10
2019-05-15T13:34:03.269Z,21.90
2019-05-15T13:35:09.885Z,21.80
2019-05-15T13:36:13.938Z,21.90
2019-05-15T13:37:26.943Z,21.90
2019-05-15T13:38:24.591Z,21.70
2019-05-15T13:39:29.182Z,21.60
2019-05-15T13:40:37.906Z,21.60
2019-05-15T13:41:39.884Z,21.70
2019-05-15T13:42:44.319Z,21.70
2019-05-15T13:43:49.334Z,21.90
2019-05-15T13:44:53.797Z,22.10
2019-05-15T13:45:58.675Z,22.30
2019-05-15T13:47:03.144Z,22.30
2019-05-15T13:48:09.019Z,22.30
2019-05-15T13:49:13.547Z,22.20
2019-05-15T13:50:19.509Z,22.00
2019-05-15T13:51:24.016Z,21.80
2019-05-15T13:52:28.606Z,21.70
2019-05-15T13:53:33.003Z,21.80
2019-05-15T13:54:38.033Z,21.80
2019-05-15T13:55:43.125Z,21.70
2019-05-15T13:56:48.775Z,21.60
2019-05-15T13:57:53.632Z,21.60
2019-05-15T13:58:58.724Z,21.60
2019-05-15T14:00:03.309Z,21.70
2019-05-15T14:01:09.464Z,21.80
2019-05-15T14:02:14.141Z,21.80
2019-05-15T14:03:18.828Z,21.80
2019-05-15T14:04:23.225Z,21.90
2019-05-15T14:05:29.968Z,22.00
2019-05-15T14:06:34.424Z,22.20
2019-05-15T14:07:48.705Z,22.20
2019-05-15T14:08:45.103Z,22.10
2019-05-15T14:09:49.713Z,21.90
2019-05-15T14:10:58.217Z,21.70
2019-05-15T14:12:02.958Z,21.70
2019-05-15T14:13:07.350Z,21.50
2019-05-15T14:14:11.943Z,21.20
2019-05-15T14:15:16.332Z,21.20
2019-05-15T14:16:20.911Z,21.10
2019-05-15T14:17:25.349Z,20.80
2019-05-15T14:18:29.940Z,20.70
2019-05-15T14:19:34.463Z,20.70
2019-05-15T14:20:39.078Z,20.70
2019-05-15T14:21:43.659Z,20.90
2019-05-15T14:22:48.591Z,21.00
2019-05-15T14:23:53.083Z,21.20
2019-05-15T14:24:58.381Z,21.30